createdAt,value
2023-05-21T00:00:13.904Z,1002.34
2023-05-21T00:00:44.839Z,1002.44
2023-05-21T00:01:17.647Z,1002.44
2023-05-21T00:01:48.776Z,1002.44
2023-05-21T00:02:21.664Z,1002.44
2023-05-21T00:02:52.789Z,1002.44
2023-05-21T00:03:25.644Z,1002.44
2023-05-21T00:03:56.816Z,1002.34
2023-05-21T00:04:29.735Z,1002.34
2023-05-21T00:05:01.035Z,1002.34
2023-05-21T00:05:33.503Z,1002.34
2023-05-21T00:06:04.434Z,1002.44
2023-05-21T00:06:37.441Z,1002.44
2023-05-21T00:07:08.639Z,1002.34
2023-05-21T00:07:41.466Z,1002.34
2023-05-21T00:08:12.387Z,1002.34
2023-05-21T00:08:45.424Z,1002.34
2023-05-21T00:09:16.453Z,1002.34
2023-05-21T00:09:49.325Z,1002.34
2023-05-21T00:10:20.384Z,1002.34
2023-05-21T00:10:53.246Z,1002.34
2023-05-21T00:11:24.355Z,1002.34
2023-05-21T00:11:57.094Z,1002.34
2023-05-21T00:12:28.256Z,1002.34
2023-05-21T00:13:01.429Z,1002.44
2023-05-21T00:13:32.283Z,1002.44
2023-05-21T00:14:05.015Z,1002.34
2023-05-21T00:14:36.267Z,1002.34
2023-05-21T00:15:09.211Z,1002.13
2023-05-21T00:15:40.275Z,1002.34
2023-05-21T00:16:13.172Z,1002.34
2023-05-21T00:16:44.357Z,1002.34
2023-05-21T00:17:17.064Z,1002.34
2023-05-21T00:17:48.275Z,1002.34
2023-05-21T00:18:21.016Z,1002.34
2023-05-21T00:18:51.971Z,1002.13
2023-05-21T00:19:25.091Z,1002.13
2023-05-21T00:19:56.056Z,1002.23
2023-05-21T00:20:28.804Z,1002.23
2023-05-21T00:21:00.073Z,1002.23
2023-05-21T00:21:32.915Z,1002.23
2023-05-21T00:22:04.033Z,1002.13
2023-05-21T00:22:36.669Z,1002.13
2023-05-21T00:23:07.809Z,1002.13
2023-05-21T00:23:41.024Z,1002.13
2023-05-21T00:24:11.761Z,1002.13
2023-05-21T00:24:44.663Z,1002.13
2023-05-21T00:25:15.734Z,1002.13
2023-05-21T00:25:48.730Z,1002.03
2023-05-21T00:26:19.548Z,1002.03
2023-05-21T00:26:52.593Z,1002.13
2023-05-21T00:27:23.624Z,1002.13
2023-05-21T00:27:56.562Z,1002.34
2023-05-21T00:28:27.503Z,1002.34
2023-05-21T00:29:00.994Z,1002.23
2023-05-21T00:29:31.559Z,1002.23
2023-05-21T00:30:05.011Z,1002.13
2023-05-21T00:30:35.539Z,1002.13
2023-05-21T00:31:08.605Z,1002.03
2023-05-21T00:31:39.524Z,1001.93
2023-05-21T00:32:12.780Z,1001.93
2023-05-21T00:32:43.494Z,1002.03
2023-05-21T00:33:16.366Z,1002.03
2023-05-21T00:33:47.396Z,1002.13
2023-05-21T00:34:20.369Z,1002.13
2023-05-21T00:34:51.496Z,1002.03
2023-05-21T00:35:24.173Z,1002.03
2023-05-21T00:35:55.307Z,1002.03
2023-05-21T00:36:28.211Z,1002.03
2023-05-21T00:36:59.201Z,1002.13
2023-05-21T00:37:32.355Z,1002.13
2023-05-21T00:38:03.247Z,1002.03
2023-05-21T00:38:35.964Z,1002.03
2023-05-21T00:39:06.993Z,1002.03
2023-05-21T00:39:39.986Z,1001.93
2023-05-21T00:40:11.418Z,1001.93
2023-05-21T00:40:44.222Z,1002.13
2023-05-21T00:41:15.045Z,1002.13
2023-05-21T00:41:48.170Z,1001.93
2023-05-21T00:42:19.160Z,1001.93
2023-05-21T00:42:51.911Z,1002.03
2023-05-21T00:43:23.036Z,1002.03
2023-05-21T00:43:56.113Z,1001.93
2023-05-21T00:44:26.996Z,1001.93
2023-05-21T00:44:59.869Z,1002.03
2023-05-21T00:45:31.320Z,1002.03
2023-05-21T00:46:04.023Z,1001.83
2023-05-21T00:46:34.903Z,1001.83
2023-05-21T00:47:07.777Z,1001.93
2023-05-21T00:47:38.856Z,1001.93
2023-05-21T00:48:11.653Z,1001.93
2023-05-21T00:48:42.676Z,1001.93
2023-05-21T00:49:15.763Z,1001.93
2023-05-21T00:49:46.624Z,1001.83
2023-05-21T00:50:19.577Z,1001.83
2023-05-21T00:50:50.885Z,1001.93
2023-05-21T00:51:23.514Z,1001.93
2023-05-21T00:51:54.554Z,1001.83
2023-05-21T00:52:27.522Z,1001.83
2023-05-21T00:52:58.636Z,1002.03
2023-05-21T00:53:31.713Z,1002.03
2023-05-21T00:54:02.465Z,1001.93
2023-05-21T00:54:35.603Z,1001.93
2023-05-21T00:55:06.548Z,1001.93
2023-05-21T00:55:39.369Z,1001.93
2023-05-21T00:56:10.514Z,1001.93
2023-05-21T00:56:43.306Z,1002.23
2023-05-21T00:57:14.433Z,1002.23
2023-05-21T00:57:47.387Z,1002.13
2023-05-21T00:58:18.414Z,1002.13
2023-05-21T00:58:51.515Z,1001.93
2023-05-21T00:59:22.201Z,1001.93
2023-05-21T00:59:55.187Z,1001.93
2023-05-21T01:00:26.528Z,1001.93
2023-05-21T01:00:59.330Z,1001.83
2023-05-21T01:01:30.202Z,1001.83
2023-05-21T01:02:03.168Z,1001.83
2023-05-21T01:02:34.525Z,1001.83
2023-05-21T01:03:07.355Z,1002.03
2023-05-21T01:03:38.018Z,1001.83
2023-05-21T01:04:11.281Z,1001.83
2023-05-21T01:04:42.050Z,1002.03
2023-05-21T01:05:15.130Z,1002.03
2023-05-21T01:05:45.791Z,1001.83
2023-05-21T01:06:18.929Z,1001.83
2023-05-21T01:06:49.950Z,1002.03
2023-05-21T01:07:23.007Z,1002.03
2023-05-21T01:07:53.832Z,1001.93
2023-05-21T01:08:26.915Z,1001.93
2023-05-21T01:08:57.910Z,1002.03
2023-05-21T01:09:30.904Z,1002.03
2023-05-21T01:10:01.814Z,1001.93
2023-05-21T01:10:35.857Z,1001.93
2023-05-21T01:11:05.797Z,1001.83
2023-05-21T01:11:38.734Z,1001.83
2023-05-21T01:12:09.673Z,1001.52
2023-05-21T01:12:42.577Z,1001.93
2023-05-21T01:13:13.818Z,1001.93
2023-05-21T01:13:46.660Z,1001.93
2023-05-21T01:14:17.803Z,1001.93
2023-05-21T01:14:50.684Z,1001.93
2023-05-21T01:15:21.873Z,1001.93
2023-05-21T01:15:54.547Z,1001.83
2023-05-21T01:16:25.730Z,1001.83
2023-05-21T01:16:58.450Z,1001.83
2023-05-21T01:17:29.578Z,1001.83
2023-05-21T01:18:02.843Z,1001.83
2023-05-21T01:18:33.505Z,1001.83
2023-05-21T01:19:06.500Z,1001.93
2023-05-21T01:19:37.654Z,1001.93
2023-05-21T01:20:10.237Z,1001.83
2023-05-21T01:20:41.481Z,1001.83
2023-05-21T01:21:14.358Z,1001.83
2023-05-21T01:21:45.472Z,1001.62
2023-05-21T01:22:18.209Z,1001.62
2023-05-21T01:22:49.237Z,1001.73
2023-05-21T01:23:22.405Z,1001.73
2023-05-21T01:23:53.371Z,1001.62
2023-05-21T01:24:26.072Z,1001.62
2023-05-21T01:24:57.205Z,1001.62
2023-05-21T01:25:30.848Z,1001.62
2023-05-21T01:26:01.370Z,1001.73
2023-05-21T01:26:34.137Z,1001.73
2023-05-21T01:27:05.045Z,1001.73
2023-05-21T01:27:38.108Z,1001.73
2023-05-21T01:28:09.764Z,1001.62
2023-05-21T01:28:41.970Z,1001.42
2023-05-21T01:29:13.016Z,1001.42
2023-05-21T01:29:46.002Z,1001.73
2023-05-21T01:30:17.277Z,1001.73
2023-05-21T01:30:50.269Z,1001.62
2023-05-21T01:31:21.112Z,1001.62
2023-05-21T01:31:53.912Z,1001.62
2023-05-21T01:32:25.099Z,1001.62
2023-05-21T01:32:57.760Z,1001.62
2023-05-21T01:33:28.868Z,1001.62
2023-05-21T01:34:01.890Z,1001.52
2023-05-21T01:34:32.864Z,1001.52
2023-05-21T01:35:05.600Z,1001.62
2023-05-21T01:35:36.987Z,1001.62
2023-05-21T01:36:09.743Z,1001.73
2023-05-21T01:36:40.952Z,1001.62
2023-05-21T01:37:13.414Z,1001.62
2023-05-21T01:37:44.531Z,1001.52
2023-05-21T01:38:17.941Z,1001.52
2023-05-21T01:38:48.695Z,1001.73
2023-05-21T01:39:22.027Z,1001.73
2023-05-21T01:39:52.562Z,1001.52
2023-05-21T01:40:25.429Z,1001.52
2023-05-21T01:40:56.445Z,1001.52
2023-05-21T01:41:29.446Z,1001.52
2023-05-21T01:42:00.668Z,1001.73
2023-05-21T01:42:33.388Z,1001.73
2023-05-21T01:43:04.882Z,1001.52
2023-05-21T01:43:37.353Z,1001.52
2023-05-21T01:44:08.903Z,1001.62
2023-05-21T01:44:41.348Z,1001.73
2023-05-21T01:45:12.440Z,1001.73
2023-05-21T01:45:45.472Z,1001.73
2023-05-21T01:46:16.408Z,1001.73
2023-05-21T01:46:49.362Z,1001.42
2023-05-21T01:47:20.173Z,1001.42
2023-05-21T01:47:53.144Z,1001.62
2023-05-21T01:48:24.266Z,1001.62
2023-05-21T01:48:57.205Z,1001.62
2023-05-21T01:49:28.271Z,1001.62
2023-05-21T01:50:01.195Z,1001.62
2023-05-21T01:50:32.138Z,1001.62
2023-05-21T01:51:05.143Z,1001.52
2023-05-21T01:51:36.117Z,1001.52
2023-05-21T01:52:09.021Z,1001.52
2023-05-21T01:52:39.919Z,1001.62
2023-05-21T01:53:13.328Z,1001.62
2023-05-21T01:53:44.106Z,1001.62
2023-05-21T01:54:17.030Z,1001.62
2023-05-21T01:54:47.898Z,1001.62
2023-05-21T01:55:21.010Z,1001.62
2023-05-21T01:55:51.794Z,1001.62
2023-05-21T01:56:24.764Z,1001.62
2023-05-21T01:56:56.012Z,1001.42
2023-05-21T01:57:28.905Z,1001.42
2023-05-21T01:58:01.361Z,1001.62
2023-05-21T01:58:32.744Z,1001.62
2023-05-21T01:59:03.810Z,1001.62
2023-05-21T01:59:36.806Z,1001.62
2023-05-21T02:00:08.137Z,1001.42
2023-05-21T02:00:40.804Z,1001.52
2023-05-21T02:01:11.749Z,1001.52
2023-05-21T02:01:44.726Z,1001.62
2023-05-21T02:02:15.692Z,1001.62
2023-05-21T02:02:48.654Z,1001.62
2023-05-21T02:03:19.653Z,1001.62
2023-05-21T02:03:52.801Z,1001.62
2023-05-21T02:04:23.431Z,1001.62
2023-05-21T02:04:56.510Z,1001.42
2023-05-21T02:05:27.668Z,1001.42
2023-05-21T02:06:00.801Z,1001.52
2023-05-21T02:06:31.457Z,1001.52
2023-05-21T02:07:04.300Z,1001.52
2023-05-21T02:07:35.428Z,1001.52
2023-05-21T02:08:08.438Z,1001.32
2023-05-21T02:08:39.288Z,1001.62
2023-05-21T02:09:12.315Z,1001.62
2023-05-21T02:09:43.499Z,1001.62
2023-05-21T02:10:16.179Z,1001.62
2023-05-21T02:10:47.210Z,1001.32
2023-05-21T02:11:20.303Z,1001.32
2023-05-21T02:11:51.516Z,1001.52
2023-05-21T02:12:24.512Z,1001.52
2023-05-21T02:12:55.272Z,1001.42
2023-05-21T02:13:28.215Z,1001.42
2023-05-21T02:13:59.309Z,1001.42
2023-05-21T02:14:32.129Z,1001.42
2023-05-21T02:15:03.298Z,1001.52
2023-05-21T02:15:36.260Z,1001.52
2023-05-21T02:16:07.128Z,1001.52
2023-05-21T02:16:39.991Z,1001.42
2023-05-21T02:17:11.155Z,1001.42
2023-05-21T02:17:43.906Z,1001.52
2023-05-21T02:18:15.152Z,1001.52
2023-05-21T02:18:48.110Z,1001.52
2023-05-21T02:19:18.947Z,1001.52
2023-05-21T02:19:52.647Z,1001.42
2023-05-21T02:20:23.067Z,1001.42
2023-05-21T02:20:55.795Z,1001.32
2023-05-21T02:21:26.936Z,1001.32
2023-05-21T02:22:00.158Z,1001.42
2023-05-21T02:22:31.032Z,1001.42
2023-05-21T02:23:03.685Z,1001.42
2023-05-21T02:23:34.676Z,1001.42
2023-05-21T02:24:07.920Z,1001.52
2023-05-21T02:24:38.856Z,1001.22
2023-05-21T02:25:11.628Z,1001.22
2023-05-21T02:25:42.627Z,1001.52
2023-05-21T02:26:15.741Z,1001.52
2023-05-21T02:26:46.790Z,1001.42
2023-05-21T02:27:19.681Z,1001.42
2023-05-21T02:27:50.771Z,1001.62
2023-05-21T02:28:23.601Z,1001.62
2023-05-21T02:28:54.613Z,1001.52
2023-05-21T02:29:27.410Z,1001.52
2023-05-21T02:29:58.589Z,1001.52
2023-05-21T02:30:31.621Z,1001.52
2023-05-21T02:31:02.623Z,1001.52
2023-05-21T02:31:36.221Z,1001.52
2023-05-21T02:32:06.462Z,1001.32
2023-05-21T02:32:39.427Z,1001.32
2023-05-21T02:33:10.608Z,1001.32
2023-05-21T02:33:43.315Z,1001.42
2023-05-21T02:34:14.314Z,1001.42
2023-05-21T02:34:47.418Z,1001.42
2023-05-21T02:35:18.139Z,1001.42
2023-05-21T02:35:51.047Z,1001.62
2023-05-21T02:36:22.161Z,1001.62
2023-05-21T02:36:55.288Z,1001.42
2023-05-21T02:37:26.340Z,1001.42
2023-05-21T02:37:59.199Z,1001.52
2023-05-21T02:38:30.053Z,1001.52
2023-05-21T02:39:03.171Z,1001.42
2023-05-21T02:39:34.175Z,1001.42
2023-05-21T02:40:07.052Z,1001.32
2023-05-21T02:40:38.060Z,1001.42
2023-05-21T02:41:11.001Z,1001.42
2023-05-21T02:41:41.817Z,1001.32
2023-05-21T02:42:15.057Z,1001.32
2023-05-21T02:42:46.079Z,1001.42
2023-05-21T02:43:18.904Z,1001.42
2023-05-21T02:43:49.803Z,1001.52
2023-05-21T02:44:22.904Z,1001.52
2023-05-21T02:44:53.923Z,1001.52
2023-05-21T02:45:27.041Z,1001.52
2023-05-21T02:45:57.975Z,1001.32
2023-05-21T02:46:30.948Z,1001.32
2023-05-21T02:47:01.851Z,1001.32
2023-05-21T02:47:35.030Z,1001.32
2023-05-21T02:48:05.841Z,1001.32
2023-05-21T02:48:38.659Z,1001.32
2023-05-21T02:49:09.693Z,1001.42
2023-05-21T02:49:42.632Z,1001.42
2023-05-21T02:50:13.714Z,1001.42
2023-05-21T02:50:46.763Z,1001.42
2023-05-21T02:51:17.593Z,1001.42
2023-05-21T02:51:50.846Z,1001.22
2023-05-21T02:52:21.634Z,1001.22
2023-05-21T02:52:54.592Z,1001.32
2023-05-21T02:53:25.513Z,1001.32
2023-05-21T02:53:58.684Z,1001.32
2023-05-21T02:54:29.515Z,1001.32
2023-05-21T02:55:02.722Z,1001.42
2023-05-21T02:55:33.797Z,1001.42
2023-05-21T02:56:06.141Z,1001.42
2023-05-21T02:56:37.292Z,1001.42
2023-05-21T02:57:10.585Z,1001.42
2023-05-21T02:57:41.582Z,1001.22
2023-05-21T02:58:14.200Z,1001.22
2023-05-21T02:58:45.095Z,1001.32
2023-05-21T02:59:18.350Z,1001.32
2023-05-21T02:59:49.176Z,1001.42
2023-05-21T03:00:22.657Z,1001.42
2023-05-21T03:00:53.238Z,1001.22
2023-05-21T03:01:26.363Z,1001.22
2023-05-21T03:01:57.178Z,1001.22
2023-05-21T03:02:30.285Z,1001.22
2023-05-21T03:03:01.380Z,1001.22
2023-05-21T03:03:34.278Z,1001.22
2023-05-21T03:04:05.214Z,1001.32
2023-05-21T03:04:37.817Z,1001.32
2023-05-21T03:05:09.102Z,1001.32
2023-05-21T03:05:41.895Z,1001.32
2023-05-21T03:06:13.011Z,1001.32
2023-05-21T03:06:45.822Z,1001.22
2023-05-21T03:07:16.841Z,1001.22
2023-05-21T03:07:49.828Z,1001.32
2023-05-21T03:08:20.968Z,1001.32
2023-05-21T03:08:53.805Z,1001.42
2023-05-21T03:09:24.811Z,1001.42
2023-05-21T03:09:57.972Z,1001.42
2023-05-21T03:10:28.888Z,1001.42
2023-05-21T03:11:01.590Z,1001.42
2023-05-21T03:11:32.825Z,1001.42
2023-05-21T03:12:05.533Z,1001.42
2023-05-21T03:12:36.871Z,1001.42
2023-05-21T03:13:10.061Z,1001.42
2023-05-21T03:13:40.772Z,1001.32
2023-05-21T03:14:13.514Z,1001.32
2023-05-21T03:14:44.498Z,1001.42
2023-05-21T03:15:17.643Z,1001.42
2023-05-21T03:15:48.674Z,1001.62
2023-05-21T03:16:21.610Z,1001.62
2023-05-21T03:16:52.803Z,1001.32
2023-05-21T03:17:25.423Z,1001.32
2023-05-21T03:17:56.533Z,1001.52
2023-05-21T03:18:29.720Z,1001.52
2023-05-21T03:19:00.658Z,1001.52
2023-05-21T03:19:33.447Z,1001.52
2023-05-21T03:20:04.480Z,1001.62
2023-05-21T03:20:37.444Z,1001.62
2023-05-21T03:21:08.396Z,1001.52
2023-05-21T03:21:41.353Z,1001.52
2023-05-21T03:22:12.325Z,1001.52
2023-05-21T03:22:45.431Z,1001.32
2023-05-21T03:23:16.896Z,1001.32
2023-05-21T03:23:49.413Z,1001.52
2023-05-21T03:24:20.449Z,1001.52
2023-05-21T03:24:53.550Z,1001.52
2023-05-21T03:25:24.280Z,1001.52
2023-05-21T03:25:57.119Z,1001.52
2023-05-21T03:26:28.264Z,1001.52
2023-05-21T03:27:01.296Z,1001.52
2023-05-21T03:27:32.047Z,1001.52
2023-05-21T03:28:05.038Z,1001.52
2023-05-21T03:28:36.262Z,1001.52
2023-05-21T03:29:09.037Z,1001.52
2023-05-21T03:29:39.945Z,1001.52
2023-05-21T03:30:13.210Z,1001.52
2023-05-21T03:30:43.909Z,1001.52
2023-05-21T03:31:16.939Z,1001.52
2023-05-21T03:31:48.161Z,1001.32
2023-05-21T03:32:21.208Z,1001.32
2023-05-21T03:32:51.986Z,1001.52
2023-05-21T03:33:24.756Z,1001.52
2023-05-21T03:33:56.035Z,1001.62
2023-05-21T03:34:28.814Z,1001.62
2023-05-21T03:34:59.885Z,1001.42
2023-05-21T03:35:32.488Z,1001.42
2023-05-21T03:36:03.706Z,1001.52
2023-05-21T03:36:38.155Z,1001.52
2023-05-21T03:37:07.782Z,1001.62
2023-05-21T03:37:40.529Z,1001.52
2023-05-21T03:38:11.637Z,1001.52
2023-05-21T03:38:44.795Z,1001.52
2023-05-21T03:39:15.552Z,1001.52
2023-05-21T03:39:48.480Z,1001.52
2023-05-21T03:40:19.652Z,1001.52
2023-05-21T03:40:52.520Z,1001.42
2023-05-21T03:41:23.583Z,1001.42
2023-05-21T03:41:56.487Z,1001.62
2023-05-21T03:42:27.442Z,1001.62
2023-05-21T03:43:00.213Z,1001.62
2023-05-21T03:43:31.623Z,1001.62
2023-05-21T03:44:04.215Z,1001.52
2023-05-21T03:44:35.462Z,1001.52
2023-05-21T03:45:08.642Z,1001.42
2023-05-21T03:45:40.999Z,1001.42
2023-05-21T03:46:12.229Z,1001.42
2023-05-21T03:46:43.331Z,1001.52
2023-05-21T03:47:16.283Z,1001.52
2023-05-21T03:47:47.513Z,1001.42
2023-05-21T03:48:20.290Z,1001.42
2023-05-21T03:48:51.310Z,1001.62
2023-05-21T03:49:24.357Z,1001.62
2023-05-21T03:49:55.204Z,1001.52
2023-05-21T03:50:28.212Z,1001.52
2023-05-21T03:50:59.179Z,1001.62
2023-05-21T03:51:32.216Z,1001.62
2023-05-21T03:52:03.332Z,1001.52
2023-05-21T03:52:36.051Z,1001.52
2023-05-21T03:53:07.094Z,1001.52
2023-05-21T03:53:40.307Z,1001.52
2023-05-21T03:54:11.057Z,1001.52
2023-05-21T03:54:43.837Z,1001.52
2023-05-21T03:55:14.918Z,1001.52
2023-05-21T03:55:47.926Z,1001.62
2023-05-21T03:56:18.897Z,1001.62
2023-05-21T03:56:51.753Z,1001.52
2023-05-21T03:57:22.928Z,1001.52
2023-05-21T03:57:56.138Z,1001.42
2023-05-21T03:58:26.700Z,1001.42
2023-05-21T03:58:59.829Z,1001.42
2023-05-21T03:59:31.103Z,1001.42
2023-05-21T04:00:03.864Z,1001.52
2023-05-21T04:00:34.588Z,1001.52
2023-05-21T04:01:07.800Z,1001.62
2023-05-21T04:01:38.907Z,1001.32
2023-05-21T04:02:11.752Z,1001.32
2023-05-21T04:02:42.875Z,1001.42
2023-05-21T04:03:15.687Z,1001.42
2023-05-21T04:03:46.902Z,1001.42
2023-05-21T04:04:19.725Z,1001.42
2023-05-21T04:04:50.793Z,1001.42
2023-05-21T04:05:23.454Z,1001.42
2023-05-21T04:05:54.476Z,1001.52
2023-05-21T04:06:27.752Z,1001.52
2023-05-21T04:06:58.420Z,1001.32
2023-05-21T04:07:31.628Z,1001.32
2023-05-21T04:08:02.321Z,1001.52
2023-05-21T04:08:35.928Z,1001.52
2023-05-21T04:09:06.261Z,1001.52
2023-05-21T04:09:39.180Z,1001.52
2023-05-21T04:10:10.316Z,1001.52
2023-05-21T04:10:43.361Z,1001.73
2023-05-21T04:11:14.154Z,1001.73
2023-05-21T04:11:47.112Z,1001.42
2023-05-21T04:12:18.152Z,1001.42
2023-05-21T04:12:51.265Z,1001.62
2023-05-21T04:13:22.058Z,1001.62
2023-05-21T04:13:55.214Z,1001.52
2023-05-21T04:14:26.135Z,1001.52
2023-05-21T04:14:59.301Z,1001.52
2023-05-21T04:15:30.158Z,1001.52
2023-05-21T04:16:03.012Z,1001.52
2023-05-21T04:16:34.189Z,1001.52
2023-05-21T04:17:07.194Z,1001.62
2023-05-21T04:17:37.992Z,1001.62
2023-05-21T04:18:11.035Z,1001.52
2023-05-21T04:18:44.872Z,1001.42
2023-05-21T04:19:14.855Z,1001.42
2023-05-21T04:19:45.934Z,1001.52
2023-05-21T04:20:18.797Z,1001.52
2023-05-21T04:20:50.031Z,1001.52
2023-05-21T04:21:22.730Z,1001.52
2023-05-21T04:21:53.776Z,1001.62
2023-05-21T04:22:26.796Z,1001.62
2023-05-21T04:22:57.818Z,1001.52
2023-05-21T04:23:30.998Z,1001.52
2023-05-21T04:24:01.760Z,1001.42
2023-05-21T04:24:34.993Z,1001.42
2023-05-21T04:25:05.812Z,1001.62
2023-05-21T04:25:38.540Z,1001.62
2023-05-21T04:26:09.552Z,1001.42
2023-05-21T04:26:42.618Z,1001.62
2023-05-21T04:27:13.739Z,1001.62
2023-05-21T04:27:46.433Z,1001.62
2023-05-21T04:28:17.737Z,1001.62
2023-05-21T04:28:50.653Z,1001.42
2023-05-21T04:29:21.653Z,1001.42
2023-05-21T04:29:54.280Z,1001.42
2023-05-21T04:30:25.495Z,1001.42
2023-05-21T04:30:58.363Z,1001.62
2023-05-21T04:31:29.525Z,1001.62
2023-05-21T04:32:02.477Z,1001.62
2023-05-21T04:32:33.489Z,1001.62
2023-05-21T04:33:06.448Z,1001.52
2023-05-21T04:33:37.372Z,1001.52
2023-05-21T04:34:10.136Z,1001.42
2023-05-21T04:34:41.495Z,1001.52
2023-05-21T04:35:14.280Z,1001.52
2023-05-21T04:35:45.479Z,1001.52
2023-05-21T04:36:18.048Z,1001.52
2023-05-21T04:36:49.076Z,1001.62
2023-05-21T04:37:22.160Z,1001.62
2023-05-21T04:37:53.340Z,1001.52
2023-05-21T04:38:26.036Z,1001.52
2023-05-21T04:38:56.954Z,1001.42
2023-05-21T04:39:30.241Z,1001.42
2023-05-21T04:40:01.385Z,1001.52
2023-05-21T04:40:33.835Z,1001.52
2023-05-21T04:41:04.953Z,1001.52
2023-05-21T04:41:38.163Z,1001.52
2023-05-21T04:42:09.941Z,1001.62
2023-05-21T04:42:41.756Z,1001.42
2023-05-21T04:43:12.789Z,1001.42
2023-05-21T04:43:46.080Z,1001.52
2023-05-21T04:44:16.958Z,1001.52
2023-05-21T04:44:49.706Z,1001.42
2023-05-21T04:45:21.257Z,1001.42
2023-05-21T04:45:53.843Z,1001.32
2023-05-21T04:46:24.714Z,1001.32
2023-05-21T04:46:57.630Z,1001.32
2023-05-21T04:47:28.970Z,1001.32
2023-05-21T04:48:02.095Z,1001.62
2023-05-21T04:48:32.684Z,1001.62
2023-05-21T04:49:05.631Z,1001.22
2023-05-21T04:49:36.794Z,1001.22
2023-05-21T04:50:09.597Z,1001.52
2023-05-21T04:50:40.859Z,1001.52
2023-05-21T04:51:13.433Z,1001.52
2023-05-21T04:51:45.276Z,1001.32
2023-05-21T04:52:17.500Z,1001.32
2023-05-21T04:52:48.529Z,1001.42
2023-05-21T04:53:21.572Z,1001.42
2023-05-21T04:53:52.487Z,1001.32
2023-05-21T04:54:25.475Z,1001.32
2023-05-21T04:54:56.351Z,1001.42
2023-05-21T04:55:29.569Z,1001.42
2023-05-21T04:56:00.556Z,1001.42
2023-05-21T04:56:33.328Z,1001.42
2023-05-21T04:57:04.236Z,1001.22
2023-05-21T04:57:38.662Z,1001.22
2023-05-21T04:58:08.322Z,1001.42
2023-05-21T04:58:41.327Z,1001.52
2023-05-21T04:59:12.153Z,1001.52
2023-05-21T04:59:45.187Z,1001.52
2023-05-21T05:00:16.565Z,1001.52
2023-05-21T05:00:49.405Z,1001.42
2023-05-21T05:01:20.220Z,1001.42
2023-05-21T05:01:53.027Z,1001.52
2023-05-21T05:02:24.264Z,1001.52
2023-05-21T05:02:57.382Z,1001.12
2023-05-21T05:03:28.175Z,1001.12
2023-05-21T05:04:01.188Z,1001.42
2023-05-21T05:04:32.051Z,1001.42
2023-05-21T05:05:04.864Z,1001.52
2023-05-21T05:05:36.181Z,1001.52
2023-05-21T05:06:08.913Z,1001.42
2023-05-21T05:06:40.109Z,1001.52
2023-05-21T05:07:12.986Z,1001.52
2023-05-21T05:07:43.942Z,1001.32
2023-05-21T05:08:16.751Z,1001.32
2023-05-21T05:08:47.993Z,1001.42
2023-05-21T05:09:20.694Z,1001.42
2023-05-21T05:09:51.729Z,1001.32
2023-05-21T05:10:24.552Z,1001.32
2023-05-21T05:10:55.812Z,1001.32
2023-05-21T05:11:28.501Z,1001.32
2023-05-21T05:11:59.618Z,1001.42
2023-05-21T05:12:32.469Z,1001.42
2023-05-21T05:13:03.799Z,1001.52
2023-05-21T05:13:37.533Z,1001.52
2023-05-21T05:14:07.494Z,1001.42
2023-05-21T05:14:40.807Z,1001.32
2023-05-21T05:15:11.830Z,1001.32
2023-05-21T05:15:44.359Z,1001.62
2023-05-21T05:16:15.640Z,1001.62
2023-05-21T05:16:48.561Z,1001.52
2023-05-21T05:17:19.520Z,1001.52
2023-05-21T05:17:52.324Z,1001.32
2023-05-21T05:18:23.371Z,1001.32
2023-05-21T05:18:56.446Z,1001.42
2023-05-21T05:19:27.419Z,1001.42
2023-05-21T05:20:02.475Z,1001.32
2023-05-21T05:20:31.465Z,1001.32
2023-05-21T05:21:04.226Z,1001.32
2023-05-21T05:21:35.322Z,1001.32
2023-05-21T05:22:08.210Z,1001.32
2023-05-21T05:22:39.310Z,1001.42
2023-05-21T05:23:12.241Z,1001.42
2023-05-21T05:23:43.267Z,1001.32
2023-05-21T05:24:16.055Z,1001.32
2023-05-21T05:24:47.160Z,1001.52
2023-05-21T05:25:20.231Z,1001.52
2023-05-21T05:25:51.275Z,1001.22
2023-05-21T05:26:23.906Z,1001.22
2023-05-21T05:26:55.034Z,1001.32
2023-05-21T05:27:28.416Z,1001.32
2023-05-21T05:27:59.186Z,1001.22
2023-05-21T05:28:32.029Z,1001.22
2023-05-21T05:29:02.940Z,1001.22
2023-05-21T05:29:39.788Z,1001.22
2023-05-21T05:30:07.416Z,1001.32
2023-05-21T05:30:38.991Z,1001.52
2023-05-21T05:31:11.126Z,1001.52
2023-05-21T05:31:42.781Z,1001.32
2023-05-21T05:32:14.939Z,1001.32
2023-05-21T05:32:46.882Z,1001.22
2023-05-21T05:33:18.648Z,1001.22
2023-05-21T05:33:50.901Z,1001.42
2023-05-21T05:34:22.921Z,1001.42
2023-05-21T05:34:54.551Z,1001.32
2023-05-21T05:35:26.726Z,1001.32
2023-05-21T05:35:58.719Z,1001.22
2023-05-21T05:36:30.979Z,1001.22
2023-05-21T05:37:02.570Z,1001.52
2023-05-21T05:37:35.087Z,1001.52
2023-05-21T05:38:06.722Z,1001.22
2023-05-21T05:38:38.528Z,1001.42
2023-05-21T05:39:10.569Z,1001.42
2023-05-21T05:39:42.500Z,1001.32
2023-05-21T05:40:14.580Z,1001.32
2023-05-21T05:40:46.508Z,1001.42
2023-05-21T05:41:18.374Z,1001.42
2023-05-21T05:41:50.581Z,1001.32
2023-05-21T05:42:22.476Z,1001.32
2023-05-21T05:42:54.514Z,1001.52
2023-05-21T05:43:26.301Z,1001.52
2023-05-21T05:43:58.210Z,1001.42
2023-05-21T05:44:30.487Z,1001.42
2023-05-21T05:45:02.480Z,1001.32
2023-05-21T05:45:34.433Z,1001.32
2023-05-21T05:46:06.329Z,1001.42
2023-05-21T05:46:38.548Z,1001.42
2023-05-21T05:47:10.106Z,1001.42
2023-05-21T05:47:42.275Z,1001.32
2023-05-21T05:48:14.184Z,1001.32
2023-05-21T05:48:46.151Z,1001.32
2023-05-21T05:49:17.945Z,1001.32
2023-05-21T05:49:50.052Z,1001.42
2023-05-21T05:50:22.201Z,1001.42
2023-05-21T05:50:54.003Z,1001.22
2023-05-21T05:51:25.922Z,1001.22
2023-05-21T05:51:57.963Z,1001.42
2023-05-21T05:52:29.888Z,1001.42
2023-05-21T05:53:01.925Z,1001.32
2023-05-21T05:53:33.714Z,1001.32
2023-05-21T05:54:05.863Z,1001.42
2023-05-21T05:54:37.799Z,1001.42
2023-05-21T05:55:10.091Z,1001.22
2023-05-21T05:55:41.854Z,1001.42
2023-05-21T05:56:13.706Z,1001.42
2023-05-21T05:56:45.772Z,1001.42
2023-05-21T05:57:17.734Z,1001.42
2023-05-21T05:57:49.751Z,1001.42
2023-05-21T05:58:21.818Z,1001.42
2023-05-21T05:58:53.727Z,1001.42
2023-05-21T05:59:25.753Z,1001.42
2023-05-21T05:59:57.574Z,1001.22
2023-05-21T06:00:29.982Z,1001.22
2023-05-21T06:01:01.675Z,1001.42
2023-05-21T06:01:34.080Z,1001.42
2023-05-21T06:02:05.602Z,1001.32
2023-05-21T06:02:37.787Z,1001.32
2023-05-21T06:03:09.716Z,1001.42
2023-05-21T06:03:41.665Z,1001.32
2023-05-21T06:04:13.449Z,1001.32
2023-05-21T06:04:45.492Z,1001.42
2023-05-21T06:05:17.769Z,1001.42
2023-05-21T06:05:49.702Z,1001.52
2023-05-21T06:06:21.526Z,1001.52
2023-05-21T06:06:53.272Z,1001.42
2023-05-21T06:07:25.292Z,1001.42
2023-05-21T06:07:57.418Z,1001.52
2023-05-21T06:08:29.353Z,1001.52
2023-05-21T06:09:01.423Z,1001.32
2023-05-21T06:09:33.218Z,1001.32
2023-05-21T06:10:05.443Z,1001.62
2023-05-21T06:10:37.385Z,1001.62
2023-05-21T06:11:09.225Z,1001.42
2023-05-21T06:11:41.314Z,1001.42
2023-05-21T06:12:15.163Z,1001.42
2023-05-21T06:12:45.104Z,1001.42
2023-05-21T06:13:17.182Z,1001.42
2023-05-21T06:13:49.117Z,1001.22
2023-05-21T06:14:21.064Z,1001.22
2023-05-21T06:14:53.119Z,1001.32
2023-05-21T06:15:25.180Z,1001.32
2023-05-21T06:15:57.716Z,1001.22
2023-05-21T06:16:29.093Z,1001.22
2023-05-21T06:17:01.384Z,1001.42
2023-05-21T06:17:33.030Z,1001.42
2023-05-21T06:18:05.080Z,1001.12
2023-05-21T06:18:36.992Z,1001.12
2023-05-21T06:19:09.005Z,1001.42
2023-05-21T06:19:40.927Z,1001.22
2023-05-21T06:20:12.902Z,1001.22
2023-05-21T06:20:44.705Z,1001.22
2023-05-21T06:21:16.754Z,1001.22
2023-05-21T06:21:48.729Z,1001.32
2023-05-21T06:22:21.265Z,1001.32
2023-05-21T06:22:52.686Z,1001.42
2023-05-21T06:23:24.640Z,1001.42
2023-05-21T06:23:56.799Z,1001.32
2023-05-21T06:24:28.817Z,1001.32
2023-05-21T06:25:01.107Z,1001.42
2023-05-21T06:25:32.727Z,1001.42
2023-05-21T06:26:04.591Z,1001.52
2023-05-21T06:26:36.657Z,1001.52